Terminal Aerodrome Forecast
Issued by NWS

Home | Current Version | Previous Version | Graphics & Text | Print | Product List | Glossary On
Versions: 1 2 3 4 5 6 7 8 9 10 11 12 13 14
000
FTUS43 KMPX 262334
TAFRWF
TAF
KRWF 262334Z 2700/2724 34009KT P6SM OVC035
     FM270015 34008KT P6SM SKC
     FM271000 VRB03KT P6SM SKC
     FM271800 17007KT P6SM SCT090 BKN150=

USA.gov is the U.S. government's official web portal to all federal, state and local government web resources and services.